createdAt,value
2018-07-23T00:02:18.522Z,16.70
2018-07-23T00:04:47.425Z,23.87
2018-07-23T00:07:16.236Z,21.07
2018-07-23T00:09:44.492Z,22.83
2018-07-23T00:12:12.854Z,21.40
2018-07-23T00:14:41.004Z,21.97
2018-07-23T00:17:09.252Z,21.53
2018-07-23T00:19:38.238Z,27.13
2018-07-23T00:22:06.608Z,27.13
2018-07-23T00:24:35.469Z,26.70
2018-07-23T00:27:03.594Z,24.10
2018-07-23T00:29:31.604Z,27.27
2018-07-23T00:32:00.101Z,27.53
2018-07-23T00:34:28.358Z,27.53
2018-07-23T00:36:56.594Z,27.87
2018-07-23T00:39:24.890Z,23.47
2018-07-23T00:41:53.184Z,26.60
2018-07-23T00:44:21.410Z,29.77
2018-07-23T00:46:49.562Z,27.57
2018-07-23T00:49:18.717Z,27.53
2018-07-23T00:51:46.956Z,26.57
2018-07-23T00:54:15.354Z,22.77
2018-07-23T00:56:43.506Z,29.53
2018-07-23T00:59:12.651Z,31.70
2018-07-23T01:01:41.342Z,27.37
2018-07-23T01:04:09.596Z,29.90
2018-07-23T01:06:38.228Z,30.07
2018-07-23T01:09:08.886Z,30.90
2018-07-23T01:11:37.096Z,28.77
2018-07-23T01:14:05.372Z,24.27
2018-07-23T01:16:34.124Z,26.67
2018-07-23T01:19:02.309Z,29.73
2018-07-23T01:21:30.578Z,31.60
2018-07-23T01:23:59.168Z,27.13
2018-07-23T01:26:28.076Z,26.97
2018-07-23T01:28:56.345Z,28.43
2018-07-23T01:31:24.518Z,27.83
2018-07-23T01:33:53.303Z,28.53
2018-07-23T01:36:21.491Z,25.30
2018-07-23T01:38:49.595Z,24.23
2018-07-23T01:41:18.441Z,26.37
2018-07-23T01:43:48.015Z,29.73
2018-07-23T01:46:17.365Z,29.70
2018-07-23T01:48:47.930Z,27.77
2018-07-23T01:51:16.117Z,27.97
2018-07-23T01:53:44.213Z,23.50
2018-07-23T01:56:14.313Z,28.77
2018-07-23T01:58:42.533Z,26.37
2018-07-23T02:01:11.737Z,23.47
2018-07-23T02:03:41.983Z,25.97
2018-07-23T02:06:10.515Z,24.40
2018-07-23T02:08:38.785Z,29.23
2018-07-23T02:11:07.158Z,33.03
2018-07-23T02:13:37.702Z,23.53
2018-07-23T02:16:07.601Z,26.93
2018-07-23T02:18:35.886Z,23.60
2018-07-23T02:21:04.840Z,22.93
2018-07-23T02:23:33.190Z,24.53
2018-07-23T02:26:01.248Z,27.60
2018-07-23T02:28:29.332Z,29.17
2018-07-23T02:30:57.508Z,29.23
2018-07-23T02:33:26.262Z,29.40
2018-07-23T02:35:55.272Z,25.90
2018-07-23T02:38:23.670Z,23.43
2018-07-23T02:40:52.406Z,21.77
2018-07-23T02:43:21.290Z,30.83
2018-07-23T02:45:49.777Z,30.27
2018-07-23T02:48:18.034Z,26.27
2018-07-23T02:50:46.760Z,24.20
2018-07-23T02:53:15.819Z,24.07
2018-07-23T02:55:44.186Z,24.20
2018-07-23T02:58:12.636Z,23.67
2018-07-23T03:00:40.773Z,22.40
2018-07-23T03:03:10.499Z,23.80
2018-07-23T03:05:38.731Z,24.20
2018-07-23T03:08:07.559Z,29.17
2018-07-23T03:10:35.834Z,24.90
2018-07-23T03:13:04.009Z,20.30
2018-07-23T03:15:32.189Z,26.63
2018-07-23T03:18:00.401Z,26.80
2018-07-23T03:20:28.436Z,25.23
2018-07-23T03:22:56.741Z,26.80
2018-07-23T03:25:25.041Z,27.63
2018-07-23T03:27:53.545Z,24.57
2018-07-23T03:30:21.682Z,27.57
2018-07-23T03:32:50.731Z,24.43
2018-07-23T03:35:18.927Z,23.60
2018-07-23T03:37:47.455Z,24.07
2018-07-23T03:40:15.537Z,22.47
2018-07-23T03:42:43.877Z,27.73
2018-07-23T03:45:12.154Z,25.00
2018-07-23T03:47:40.388Z,26.83
2018-07-23T03:50:08.666Z,27.27
2018-07-23T03:52:36.889Z,26.40
2018-07-23T03:55:05.183Z,25.70
2018-07-23T03:57:33.318Z,25.37
2018-07-23T04:00:01.657Z,25.33
2018-07-23T04:02:29.876Z,30.90
2018-07-23T04:04:58.118Z,22.90
2018-07-23T04:07:27.216Z,24.40
2018-07-23T04:09:55.395Z,22.63
2018-07-23T04:12:23.548Z,21.13
2018-07-23T04:14:51.738Z,22.87
2018-07-23T04:17:20.001Z,23.50
2018-07-23T04:19:49.131Z,23.53
2018-07-23T04:22:17.216Z,23.93
2018-07-23T04:24:45.544Z,24.93
2018-07-23T04:27:13.877Z,26.13
2018-07-23T04:29:42.089Z,25.97
2018-07-23T04:32:10.428Z,24.33
2018-07-23T04:34:38.592Z,25.80
2018-07-23T04:37:06.877Z,27.57
2018-07-23T04:39:35.096Z,23.17
2018-07-23T04:42:03.311Z,25.20
2018-07-23T04:44:31.592Z,21.87
2018-07-23T04:46:59.937Z,29.73
2018-07-23T04:49:28.884Z,25.67
2018-07-23T04:51:57.165Z,24.57
2018-07-23T04:54:25.413Z,24.97
2018-07-23T04:56:53.585Z,20.20
2018-07-23T04:59:21.950Z,24.13
2018-07-23T05:01:51.055Z,25.07
2018-07-23T05:04:19.317Z,31.40
2018-07-23T05:06:47.472Z,27.43
2018-07-23T05:09:16.205Z,30.97
2018-07-23T05:11:44.389Z,28.27
2018-07-23T05:14:12.658Z,36.17
2018-07-23T05:16:40.875Z,28.20
2018-07-23T05:19:08.989Z,26.47
2018-07-23T05:21:37.673Z,24.90
2018-07-23T05:24:06.131Z,27.67
2018-07-23T05:26:34.265Z,21.57
2018-07-23T05:29:02.618Z,30.77
2018-07-23T05:31:30.887Z,28.40
2018-07-23T05:33:59.526Z,27.07
2018-07-23T05:36:27.560Z,22.80
2018-07-23T05:38:55.673Z,31.03
2018-07-23T05:41:23.719Z,25.67
2018-07-23T05:43:51.889Z,18.83
2018-07-23T05:46:20.377Z,21.20
2018-07-23T05:48:48.707Z,23.83
2018-07-23T05:51:17.085Z,22.53
2018-07-23T05:53:45.200Z,25.00
2018-07-23T05:56:13.325Z,18.47
2018-07-23T05:58:41.592Z,14.90
2018-07-23T06:01:10.218Z,20.63
2018-07-23T06:03:38.512Z,16.93
2018-07-23T06:06:06.652Z,17.20
2018-07-23T06:08:34.767Z,14.90
2018-07-23T06:11:03.004Z,13.20
2018-07-23T06:13:31.286Z,21.03
2018-07-23T06:16:00.247Z,22.77
2018-07-23T06:18:28.410Z,23.10
2018-07-23T06:20:56.540Z,21.17
2018-07-23T06:23:24.756Z,19.60
2018-07-23T06:25:53.006Z,16.07
2018-07-23T06:28:21.218Z,16.23
2018-07-23T06:30:49.498Z,16.60
2018-07-23T06:33:17.679Z,19.03
2018-07-23T06:35:45.964Z,15.48
2018-07-23T06:38:14.136Z,13.72
2018-07-23T06:40:42.529Z,10.48
2018-07-23T06:43:10.733Z,12.78
2018-07-23T06:45:38.888Z,12.78
2018-07-23T06:48:07.328Z,12.10
2018-07-23T06:50:35.388Z,14.23
2018-07-23T06:53:03.857Z,13.13
2018-07-23T06:55:32.052Z,9.95
2018-07-23T06:58:00.088Z,12.20
2018-07-23T07:00:28.316Z,17.48
2018-07-23T07:02:56.426Z,14.43
2018-07-23T07:05:24.599Z,13.07
2018-07-23T07:07:52.797Z,11.73
2018-07-23T07:10:20.936Z,9.10
2018-07-23T07:12:49.312Z,12.63
2018-07-23T07:15:17.486Z,10.90
2018-07-23T07:17:45.667Z,10.67
2018-07-23T07:20:14.015Z,15.83
2018-07-23T07:22:42.143Z,8.20
2018-07-23T07:25:10.252Z,7.13
2018-07-23T07:27:38.279Z,5.53
2018-07-23T07:30:07.107Z,5.43
2018-07-23T07:32:35.327Z,4.23
2018-07-23T07:35:03.840Z,4.30
2018-07-23T07:37:32.022Z,5.37
2018-07-23T07:40:00.302Z,8.37
2018-07-23T07:42:28.420Z,5.87
2018-07-23T07:44:56.616Z,7.33
2018-07-23T07:47:24.812Z,7.47
2018-07-23T07:49:53.071Z,6.07
2018-07-23T07:52:21.205Z,5.60
2018-07-23T07:54:49.440Z,9.43
2018-07-23T07:57:17.604Z,10.00
2018-07-23T07:59:45.831Z,7.40
2018-07-23T08:02:14.049Z,8.20
2018-07-23T08:04:42.308Z,9.17
2018-07-23T08:07:10.593Z,5.15
2018-07-23T08:09:38.784Z,5.33
2018-07-23T08:12:07.228Z,6.15
2018-07-23T08:14:35.399Z,4.50
2018-07-23T08:17:03.756Z,4.80
2018-07-23T08:19:31.876Z,7.87
2018-07-23T08:22:00.679Z,4.75
2018-07-23T08:24:28.807Z,5.33
2018-07-23T08:26:56.993Z,6.65
2018-07-23T08:29:25.301Z,6.25
2018-07-23T08:31:53.521Z,6.97
2018-07-23T08:34:21.803Z,4.55
2018-07-23T08:36:50.019Z,3.77
2018-07-23T08:39:19.674Z,4.55
2018-07-23T08:41:47.873Z,4.47
2018-07-23T08:44:16.229Z,4.50
2018-07-23T08:46:44.383Z,6.22
2018-07-23T08:49:12.479Z,3.80
2018-07-23T08:51:40.589Z,6.78
2018-07-23T08:54:08.769Z,3.52
2018-07-23T08:56:37.327Z,4.65
2018-07-23T08:59:05.555Z,4.62
2018-07-23T09:01:33.719Z,3.67
2018-07-23T09:04:01.865Z,5.70
2018-07-23T09:06:29.986Z,7.10
2018-07-23T09:08:58.096Z,4.62
2018-07-23T09:11:26.124Z,4.30
2018-07-23T09:13:54.248Z,5.35
2018-07-23T09:16:22.426Z,4.92
2018-07-23T09:18:50.696Z,5.37
2018-07-23T09:21:19.272Z,4.03
2018-07-23T09:23:47.406Z,5.17
2018-07-23T09:26:16.529Z,4.90
2018-07-23T09:28:45.188Z,8.98
2018-07-23T09:31:13.460Z,3.90
2018-07-23T09:33:41.708Z,3.30
2018-07-23T09:36:09.908Z,4.50
2018-07-23T09:38:38.220Z,4.28
2018-07-23T09:41:07.554Z,5.87
2018-07-23T09:43:35.789Z,4.53
2018-07-23T09:46:04.355Z,3.70
2018-07-23T09:48:32.522Z,3.62
2018-07-23T09:51:00.707Z,3.92
2018-07-23T09:53:28.986Z,3.83
2018-07-23T09:55:57.952Z,4.87
2018-07-23T09:58:26.078Z,3.30
2018-07-23T10:00:56.360Z,3.95
2018-07-23T10:03:24.682Z,2.98
2018-07-23T10:05:52.956Z,4.40
2018-07-23T10:08:21.332Z,2.55
2018-07-23T10:10:49.537Z,3.27
2018-07-23T10:13:17.675Z,3.50
2018-07-23T10:15:45.904Z,3.15
2018-07-23T10:18:14.050Z,3.25
2018-07-23T10:20:42.080Z,3.22
2018-07-23T10:23:10.360Z,4.45
2018-07-23T10:25:38.626Z,4.12
2018-07-23T10:28:06.891Z,6.97
2018-07-23T10:30:35.022Z,4.12
2018-07-23T10:33:03.280Z,2.65
2018-07-23T10:35:31.507Z,3.58
2018-07-23T10:37:59.729Z,3.87
2018-07-23T10:40:27.866Z,3.00
2018-07-23T10:42:56.024Z,2.55
2018-07-23T10:45:24.275Z,2.83
2018-07-23T10:47:52.314Z,3.47
2018-07-23T10:50:20.421Z,4.45
2018-07-23T10:52:48.553Z,2.98
2018-07-23T10:55:16.827Z,4.75
2018-07-23T10:57:44.965Z,2.92
2018-07-23T11:00:13.211Z,2.22
2018-07-23T11:02:41.365Z,4.20
2018-07-23T11:05:10.209Z,3.33
2018-07-23T11:07:38.494Z,4.35
2018-07-23T11:10:07.617Z,4.30
2018-07-23T11:12:36.224Z,4.17
2018-07-23T11:15:06.396Z,3.90
2018-07-23T11:17:35.461Z,3.60
2018-07-23T11:20:04.068Z,4.22
2018-07-23T11:22:32.302Z,4.10
2018-07-23T11:25:37.950Z,3.98
2018-07-23T11:27:28.864Z,3.62
2018-07-23T11:29:57.027Z,3.50
2018-07-23T11:32:25.204Z,3.83
2018-07-23T11:34:53.442Z,4.05
2018-07-23T11:37:21.551Z,3.87
2018-07-23T11:39:50.684Z,4.17
2018-07-23T11:42:18.847Z,4.22
2018-07-23T11:44:47.198Z,4.72
2018-07-23T11:47:15.437Z,4.42
2018-07-23T11:49:43.480Z,4.90
2018-07-23T11:52:14.362Z,4.72
2018-07-23T11:54:40.025Z,4.25
2018-07-23T11:57:08.153Z,3.87
2018-07-23T11:59:36.428Z,4.17
2018-07-23T12:02:04.732Z,5.50
2018-07-23T12:04:32.986Z,6.17
2018-07-23T12:07:01.147Z,4.50
2018-07-23T12:09:30.119Z,4.97
2018-07-23T12:11:58.384Z,5.03
2018-07-23T12:14:26.515Z,5.45
2018-07-23T12:16:54.729Z,3.52
2018-07-23T12:19:22.859Z,4.08
2018-07-23T12:21:51.212Z,4.70
2018-07-23T12:24:19.450Z,6.35
2018-07-23T12:26:47.697Z,5.30
2018-07-23T12:29:15.836Z,3.90
2018-07-23T12:31:44.190Z,4.60
2018-07-23T12:34:12.395Z,6.75
2018-07-23T12:36:40.574Z,4.25
2018-07-23T12:39:10.788Z,4.30
2018-07-23T12:41:39.155Z,4.05
2018-07-23T12:44:07.840Z,6.35
2018-07-23T12:46:36.041Z,4.17
2018-07-23T12:49:05.576Z,4.22
2018-07-23T12:51:34.422Z,5.12
2018-07-23T12:54:03.715Z,3.65
2018-07-23T12:56:32.483Z,3.77
2018-07-23T12:59:00.588Z,5.42
2018-07-23T13:01:30.515Z,5.85
2018-07-23T13:03:58.689Z,3.87
2018-07-23T13:06:26.908Z,7.10
2018-07-23T13:08:55.296Z,4.10
2018-07-23T13:11:24.026Z,3.83
2018-07-23T13:13:52.921Z,4.05
2018-07-23T13:16:21.221Z,3.75
2018-07-23T13:18:50.093Z,4.22
2018-07-23T13:21:19.760Z,5.85
2018-07-23T13:23:48.003Z,6.62
2018-07-23T13:26:17.508Z,7.33
2018-07-23T13:28:46.325Z,5.62
2018-07-23T13:31:15.916Z,5.37
2018-07-23T13:33:44.132Z,5.17
2018-07-23T13:36:12.958Z,4.65
2018-07-23T13:38:41.252Z,5.12
2018-07-23T13:41:09.536Z,5.00
2018-07-23T13:43:37.778Z,4.97
2018-07-23T13:46:06.057Z,5.03
2018-07-23T13:48:34.219Z,3.45
2018-07-23T13:51:02.606Z,5.12
2018-07-23T13:53:30.826Z,4.17
2018-07-23T13:55:59.244Z,5.42
2018-07-23T13:58:28.038Z,4.62
2018-07-23T14:00:56.362Z,4.03
2018-07-23T14:03:25.480Z,4.35
2018-07-23T14:05:54.570Z,6.80
2018-07-23T14:08:23.004Z,4.80
2018-07-23T14:10:51.235Z,5.20
2018-07-23T14:13:19.430Z,4.97
2018-07-23T14:15:47.670Z,4.80
2018-07-23T14:18:16.029Z,6.53
2018-07-23T14:20:44.178Z,5.30
2018-07-23T14:23:12.405Z,5.85
2018-07-23T14:25:40.616Z,5.62
2018-07-23T14:28:08.957Z,5.85
2018-07-23T14:30:37.018Z,4.92
2018-07-23T14:33:05.464Z,5.97
2018-07-23T14:35:33.533Z,6.60
2018-07-23T14:38:01.637Z,5.83
2018-07-23T14:40:29.726Z,7.95
2018-07-23T14:42:59.384Z,6.33
2018-07-23T14:45:28.098Z,5.80
2018-07-23T14:47:57.182Z,4.70
2018-07-23T14:50:25.477Z,5.20
2018-07-23T14:52:53.698Z,7.45
2018-07-23T14:55:22.772Z,7.45
2018-07-23T14:57:51.694Z,6.30
2018-07-23T15:00:19.884Z,6.05
2018-07-23T15:02:48.123Z,7.85
2018-07-23T15:05:16.889Z,7.35
2018-07-23T15:07:45.122Z,5.15
2018-07-23T15:10:14.142Z,5.70
2018-07-23T15:12:43.138Z,6.10
2018-07-23T15:15:11.321Z,5.90
2018-07-23T15:17:39.586Z,6.63
2018-07-23T15:20:07.810Z,7.03
2018-07-23T15:22:36.019Z,5.80
2018-07-23T15:25:05.681Z,5.90
2018-07-23T15:27:33.851Z,6.40
2018-07-23T15:30:02.620Z,5.70
2018-07-23T15:32:30.632Z,6.22
2018-07-23T15:34:58.710Z,5.20
2018-07-23T15:37:26.893Z,6.72
2018-07-23T15:39:55.927Z,6.53
2018-07-23T15:42:24.166Z,6.22
2018-07-23T15:44:52.517Z,6.10
2018-07-23T15:47:20.646Z,7.05
2018-07-23T15:49:48.880Z,6.72
2018-07-23T15:52:17.860Z,5.77
2018-07-23T15:54:46.126Z,5.93
2018-07-23T15:57:14.518Z,6.72
2018-07-23T15:59:42.804Z,6.10
2018-07-23T16:02:11.002Z,5.10
2018-07-23T16:04:39.146Z,6.22
2018-07-23T16:07:07.300Z,5.03
2018-07-23T16:09:35.599Z,5.33
2018-07-23T16:12:03.808Z,5.85
2018-07-23T16:14:32.109Z,7.30
2018-07-23T16:17:00.192Z,6.87
2018-07-23T16:19:28.253Z,7.97
2018-07-23T16:21:56.484Z,7.20
2018-07-23T16:24:24.592Z,6.40
2018-07-23T16:26:52.958Z,6.30
2018-07-23T16:29:21.132Z,6.93
2018-07-23T16:31:49.298Z,6.30
2018-07-23T16:34:17.450Z,4.57
2018-07-23T16:36:45.602Z,6.43
2018-07-23T16:39:14.110Z,6.17
2018-07-23T16:41:42.640Z,6.60
2018-07-23T16:44:10.754Z,6.37
2018-07-23T16:46:38.973Z,6.50
2018-07-23T16:49:07.071Z,6.63
2018-07-23T16:51:35.375Z,6.33
2018-07-23T16:54:03.639Z,6.43
2018-07-23T16:56:31.942Z,6.20
2018-07-23T16:59:00.015Z,6.23
2018-07-23T17:01:28.042Z,7.17
2018-07-23T17:03:56.193Z,6.57
2018-07-23T17:06:24.722Z,7.03
2018-07-23T17:08:52.934Z,6.50
2018-07-23T17:11:21.744Z,6.90
2018-07-23T17:13:50.030Z,6.90
2018-07-23T17:16:18.332Z,7.33
2018-07-23T17:18:46.550Z,6.43
2018-07-23T17:21:14.767Z,6.77
2018-07-23T17:23:42.999Z,7.20
2018-07-23T17:26:11.953Z,6.93
2018-07-23T17:28:40.188Z,7.13
2018-07-23T17:31:08.892Z,5.93
2018-07-23T17:33:38.673Z,6.40
2018-07-23T17:36:06.772Z,5.77
2018-07-23T17:38:34.964Z,6.63
2018-07-23T17:41:03.188Z,7.00
2018-07-23T17:43:31.457Z,5.03
2018-07-23T17:46:00.621Z,6.53
2018-07-23T17:48:28.797Z,9.23
2018-07-23T17:50:56.957Z,6.47
2018-07-23T17:53:25.051Z,7.50
2018-07-23T17:55:53.593Z,5.93
2018-07-23T17:58:21.874Z,6.77
2018-07-23T18:00:50.055Z,6.87
2018-07-23T18:03:18.386Z,6.60
2018-07-23T18:05:46.672Z,6.30
2018-07-23T18:08:15.118Z,5.93
2018-07-23T18:10:43.255Z,6.27
2018-07-23T18:13:11.406Z,7.60
2018-07-23T18:15:39.653Z,8.90
2018-07-23T18:18:07.909Z,6.33
2018-07-23T18:20:36.138Z,7.10
2018-07-23T18:23:04.166Z,5.53
2018-07-23T18:25:32.310Z,6.00
2018-07-23T18:28:00.554Z,6.20
2018-07-23T18:30:28.630Z,5.17
2018-07-23T18:32:56.774Z,5.20
2018-07-23T18:35:25.011Z,5.90
2018-07-23T18:37:53.478Z,5.67
2018-07-23T18:40:21.589Z,4.70
2018-07-23T18:42:49.721Z,6.50
2018-07-23T18:45:17.893Z,4.20
2018-07-23T18:47:45.960Z,4.97
2018-07-23T18:50:14.180Z,5.93
2018-07-23T18:52:42.302Z,5.47
2018-07-23T18:55:10.585Z,6.07
2018-07-23T18:57:39.610Z,4.87
2018-07-23T19:00:07.826Z,6.00
2018-07-23T19:02:35.983Z,4.73
2018-07-23T19:05:04.548Z,5.60
2018-07-23T19:07:32.639Z,6.73
2018-07-23T19:10:00.735Z,5.80
2018-07-23T19:12:29.144Z,5.53
2018-07-23T19:14:57.291Z,4.30
2018-07-23T19:17:25.517Z,5.50
2018-07-23T19:19:53.634Z,4.93
2018-07-23T19:22:21.781Z,5.30
2018-07-23T19:24:50.057Z,5.67
2018-07-23T19:27:19.284Z,5.30
2018-07-23T19:29:47.421Z,5.07
2018-07-23T19:32:15.610Z,5.53
2018-07-23T19:34:43.899Z,5.47
2018-07-23T19:37:12.041Z,4.50
2018-07-23T19:39:40.854Z,5.60
2018-07-23T19:42:09.703Z,5.60
2018-07-23T19:44:37.889Z,4.90
2018-07-23T19:47:06.726Z,5.50
2018-07-23T19:49:34.987Z,4.90
2018-07-23T19:52:03.144Z,5.70
2018-07-23T19:54:31.408Z,4.80
2018-07-23T19:57:00.334Z,6.60
2018-07-23T19:59:28.795Z,4.10
2018-07-23T20:01:57.026Z,4.10
2018-07-23T20:04:25.184Z,4.70
2018-07-23T20:06:54.046Z,4.43
2018-07-23T20:09:23.163Z,4.07
2018-07-23T20:11:51.931Z,4.87
2018-07-23T20:14:20.009Z,4.97
2018-07-23T20:16:48.106Z,4.67
2018-07-23T20:19:16.890Z,5.90
2018-07-23T20:21:45.910Z,5.33
2018-07-23T20:24:14.092Z,5.60
2018-07-23T20:26:43.052Z,5.70
2018-07-23T20:29:11.488Z,5.10
2018-07-23T20:31:41.082Z,5.50
2018-07-23T20:34:09.226Z,4.97
2018-07-23T20:36:37.338Z,7.97
2018-07-23T20:39:07.326Z,6.00
2018-07-23T20:41:36.930Z,4.90
2018-07-23T20:44:05.314Z,4.77
2018-07-23T20:46:33.672Z,6.20
2018-07-23T20:49:01.849Z,5.50
2018-07-23T20:51:30.148Z,5.67
2018-07-23T20:53:58.938Z,5.60
2018-07-23T20:56:27.022Z,5.33
2018-07-23T20:58:55.910Z,4.67
2018-07-23T21:01:24.105Z,4.20
2018-07-23T21:03:52.355Z,4.97
2018-07-23T21:06:20.456Z,4.83
2018-07-23T21:08:48.803Z,4.80
2018-07-23T21:11:16.809Z,5.50
2018-07-23T21:13:45.017Z,5.67
2018-07-23T21:16:13.275Z,7.83
2018-07-23T21:18:41.477Z,4.50
2018-07-23T21:21:09.719Z,4.90
2018-07-23T21:23:38.066Z,4.17
2018-07-23T21:26:06.145Z,4.70
2018-07-23T21:28:34.459Z,4.53
2018-07-23T21:31:03.016Z,6.43
2018-07-23T21:33:31.172Z,4.73
2018-07-23T21:35:59.212Z,5.00
2018-07-23T21:38:27.526Z,3.93
2018-07-23T21:40:55.789Z,5.13
2018-07-23T21:43:23.999Z,7.17
2018-07-23T21:45:52.620Z,5.10
2018-07-23T21:48:20.731Z,5.47
2018-07-23T21:50:48.780Z,5.50
2018-07-23T21:53:16.832Z,5.37
2018-07-23T21:55:44.902Z,5.13
2018-07-23T21:58:13.034Z,4.53
2018-07-23T22:00:41.592Z,5.10
2018-07-23T22:03:13.533Z,5.30
2018-07-23T22:05:41.733Z,5.23
2018-07-23T22:08:10.003Z,5.63
2018-07-23T22:10:42.952Z,5.50
2018-07-23T22:13:11.174Z,4.27
2018-07-23T22:15:39.411Z,4.33
2018-07-23T22:18:08.197Z,4.40
2018-07-23T22:20:36.706Z,4.60
2018-07-23T22:23:05.290Z,4.27
2018-07-23T22:25:34.272Z,4.43
2018-07-23T22:28:03.434Z,6.20
2018-07-23T22:30:32.424Z,5.00
2018-07-23T22:33:00.630Z,4.93
2018-07-23T22:35:28.867Z,4.43
2018-07-23T22:37:57.154Z,5.10
2018-07-23T22:40:26.747Z,5.30
2018-07-23T22:42:55.053Z,4.97
2018-07-23T22:45:24.372Z,5.07
2018-07-23T22:47:52.628Z,4.83
2018-07-23T22:50:20.854Z,4.43
2018-07-23T22:52:48.992Z,4.07
2018-07-23T22:55:18.224Z,4.40
2018-07-23T22:57:46.424Z,3.73
2018-07-23T23:00:15.923Z,4.53
2018-07-23T23:02:44.686Z,6.30
2018-07-23T23:05:14.467Z,4.20
2018-07-23T23:07:44.774Z,6.70
2018-07-23T23:10:12.725Z,4.23
2018-07-23T23:12:40.814Z,5.10
2018-07-23T23:15:09.135Z,6.27
2018-07-23T23:17:38.245Z,4.57
2018-07-23T23:20:06.356Z,4.20
2018-07-23T23:22:34.425Z,4.53
2018-07-23T23:25:02.899Z,4.40
2018-07-23T23:27:31.670Z,4.90
2018-07-23T23:29:59.991Z,4.87
2018-07-23T23:32:28.777Z,4.57
2018-07-23T23:34:56.970Z,6.27
2018-07-23T23:37:27.175Z,4.17
2018-07-23T23:39:55.596Z,5.80
2018-07-23T23:42:23.946Z,4.70
2018-07-23T23:44:52.477Z,4.50
2018-07-23T23:47:21.152Z,4.47
2018-07-23T23:49:49.222Z,5.73
2018-07-23T23:52:17.277Z,5.37
2018-07-23T23:54:45.518Z,4.90
2018-07-23T23:57:13.782Z,4.80
2018-07-23T23:59:43.684Z,5.37
